createdAt,value
2023-03-21T00:01:30.623Z,70.19
2023-03-21T00:03:58.176Z,70.70
2023-03-21T00:06:25.744Z,70.30
2023-03-21T00:08:53.485Z,70.48
2023-03-21T00:11:21.613Z,70.39
2023-03-21T00:13:50.348Z,69.42
2023-03-21T00:16:29.234Z,68.80
2023-03-21T00:18:58.687Z,67.62
2023-03-21T00:22:03.590Z,68.31
2023-03-21T00:24:19.709Z,68.66
2023-03-21T00:26:47.117Z,67.91
2023-03-21T00:29:16.012Z,69.43
2023-03-21T00:31:43.426Z,68.58
2023-03-21T00:34:14.079Z,67.50
2023-03-21T00:36:41.668Z,68.63
2023-03-21T00:39:09.521Z,68.26
2023-03-21T00:41:42.854Z,68.44
2023-03-21T00:44:13.583Z,67.41
2023-03-21T00:46:51.676Z,67.48
2023-03-21T00:49:24.736Z,68.04
2023-03-21T00:51:53.241Z,67.49
2023-03-21T00:54:20.758Z,67.84
2023-03-21T00:56:48.159Z,67.94
2023-03-21T00:59:16.598Z,68.62
2023-03-21T01:01:46.782Z,67.72
2023-03-21T01:04:16.525Z,68.18
2023-03-21T01:06:45.059Z,68.20
2023-03-21T01:09:15.112Z,67.81
2023-03-21T01:11:42.891Z,69.69
2023-03-21T01:14:21.875Z,69.76
2023-03-21T01:16:51.230Z,69.54
2023-03-21T01:19:50.648Z,70.40
2023-03-21T01:22:07.479Z,69.39
2023-03-21T01:24:37.715Z,69.34
2023-03-21T01:27:05.948Z,69.12
2023-03-21T01:29:33.352Z,68.57
2023-03-21T01:32:02.074Z,68.51
2023-03-21T01:34:29.931Z,69.34
2023-03-21T01:36:57.404Z,68.84
2023-03-21T01:39:24.837Z,69.97
2023-03-21T01:41:52.254Z,70.94
2023-03-21T01:44:20.297Z,69.67
2023-03-21T01:49:41.589Z,70.06
2023-03-21T01:52:20.950Z,69.44
2023-03-21T01:54:56.943Z,70.25
2023-03-21T01:57:40.389Z,68.83
2023-03-21T02:00:13.033Z,70.25
2023-03-21T02:02:52.137Z,69.10
2023-03-21T02:05:28.285Z,70.53
2023-03-21T02:07:55.815Z,69.39
2023-03-21T02:10:23.331Z,68.72
2023-03-21T02:12:51.176Z,68.97
2023-03-21T02:15:18.749Z,70.23
2023-03-21T02:17:53.328Z,70.14
2023-03-21T02:20:36.054Z,69.89
2023-03-21T02:23:24.522Z,71.73
2023-03-21T02:26:19.114Z,71.76
2023-03-21T02:28:48.938Z,72.16
2023-03-21T02:31:28.333Z,71.35
2023-03-21T02:34:36.206Z,71.62
2023-03-21T02:37:09.762Z,70.26
2023-03-21T02:39:48.807Z,70.96
2023-03-21T02:42:21.813Z,71.49
2023-03-21T02:44:57.036Z,71.17
2023-03-21T02:47:28.983Z,71.11
2023-03-21T02:49:59.816Z,72.46
2023-03-21T02:52:39.144Z,72.08
2023-03-21T02:55:13.726Z,72.13
2023-03-21T02:57:44.004Z,71.40
2023-03-21T03:00:17.852Z,72.15
2023-03-21T03:02:47.520Z,72.75
2023-03-21T03:05:21.605Z,72.03
2023-03-21T03:08:00.989Z,72.12
2023-03-21T03:10:40.305Z,72.57
2023-03-21T03:13:16.971Z,72.84
2023-03-21T03:15:57.769Z,73.72
2023-03-21T03:18:33.543Z,72.49
2023-03-21T03:21:09.498Z,74.48
2023-03-21T03:23:45.945Z,75.17
2023-03-21T03:26:17.758Z,75.36
2023-03-21T03:28:50.190Z,76.01
2023-03-21T03:31:25.919Z,74.37
2023-03-21T03:33:57.137Z,75.32
2023-03-21T03:36:32.602Z,74.31
2023-03-21T03:39:05.351Z,74.72
2023-03-21T03:42:03.050Z,74.22
2023-03-21T03:44:24.210Z,74.11
2023-03-21T03:46:57.211Z,74.59
2023-03-21T03:49:27.953Z,74.76
2023-03-21T03:52:00.317Z,74.71
2023-03-21T03:54:33.197Z,76.03
2023-03-21T03:57:01.263Z,76.03
2023-03-21T03:59:28.710Z,76.48
2023-03-21T04:01:56.172Z,75.29
2023-03-21T04:04:28.621Z,75.74
2023-03-21T04:06:58.011Z,75.11
2023-03-21T04:09:40.942Z,75.14
2023-03-21T04:12:12.798Z,74.52
2023-03-21T04:14:45.581Z,75.19
2023-03-21T04:17:14.662Z,76.36
2023-03-21T04:19:42.468Z,75.82
2023-03-21T04:22:09.941Z,75.73
2023-03-21T04:24:37.501Z,75.57
2023-03-21T04:27:05.789Z,75.92
2023-03-21T04:29:34.564Z,76.88
2023-03-21T04:32:02.346Z,76.44
2023-03-21T04:34:29.930Z,76.13
2023-03-21T04:36:57.874Z,77.08
2023-03-21T04:39:25.474Z,76.36
2023-03-21T04:41:52.971Z,77.08
2023-03-21T04:44:20.891Z,77.18
2023-03-21T04:46:50.300Z,77.48
2023-03-21T04:49:18.466Z,77.91
2023-03-21T04:51:46.035Z,75.29
2023-03-21T04:56:41.102Z,75.61
2023-03-21T04:59:12.687Z,77.03
2023-03-21T05:01:41.068Z,77.03
2023-03-21T05:04:10.799Z,77.44
2023-03-21T05:06:38.276Z,77.09
2023-03-21T05:09:07.085Z,77.69
2023-03-21T05:11:37.623Z,76.23
2023-03-21T05:14:05.712Z,77.12
2023-03-21T05:16:34.750Z,77.50
2023-03-21T05:19:04.966Z,78.03
2023-03-21T05:21:41.861Z,77.87
2023-03-21T05:24:12.143Z,77.79
2023-03-21T05:26:40.111Z,79.06
2023-03-21T05:29:08.241Z,79.45
2023-03-21T05:31:36.240Z,79.25
2023-03-21T05:34:04.120Z,79.14
2023-03-21T05:36:33.985Z,79.73
2023-03-21T05:39:02.847Z,79.98
2023-03-21T05:41:30.510Z,78.66
2023-03-21T05:43:57.951Z,79.13
2023-03-21T05:46:25.381Z,79.28
2023-03-21T05:48:53.002Z,81.28
2023-03-21T05:51:20.542Z,81.88
2023-03-21T05:53:48.487Z,80.91
2023-03-21T05:56:17.330Z,82.58
2023-03-21T05:58:44.804Z,80.69
2023-03-21T06:01:12.529Z,80.03
2023-03-21T06:03:39.965Z,80.11
2023-03-21T06:06:08.143Z,80.69
2023-03-21T06:08:35.737Z,79.26
2023-03-21T06:11:03.280Z,80.40
2023-03-21T06:13:32.882Z,80.95
2023-03-21T06:16:00.384Z,79.68
2023-03-21T06:18:28.072Z,79.17
2023-03-21T06:20:56.629Z,82.15
2023-03-21T06:23:24.061Z,81.37
2023-03-21T06:25:51.576Z,80.98
2023-03-21T06:28:19.069Z,80.14
2023-03-21T06:30:47.777Z,80.35
2023-03-21T06:33:15.358Z,81.57
2023-03-21T06:35:42.774Z,80.34
2023-03-21T06:38:10.334Z,79.86
2023-03-21T06:40:38.931Z,78.72
2023-03-21T06:43:06.706Z,81.02
2023-03-21T06:45:34.114Z,78.90
2023-03-21T06:48:02.922Z,80.30
2023-03-21T06:50:30.417Z,81.64
2023-03-21T06:52:59.334Z,81.45
2023-03-21T06:55:28.787Z,81.75
2023-03-21T06:57:57.334Z,79.38
2023-03-21T07:00:25.304Z,79.14
2023-03-21T07:02:53.815Z,79.77
2023-03-21T07:05:22.664Z,81.36
2023-03-21T07:07:50.109Z,80.46
2023-03-21T07:10:17.785Z,81.79
2023-03-21T07:12:45.316Z,81.46
2023-03-21T07:15:12.937Z,80.61
2023-03-21T07:17:40.361Z,80.34
2023-03-21T07:20:08.674Z,79.64
2023-03-21T07:22:37.451Z,80.06
2023-03-21T07:25:06.290Z,80.97
2023-03-21T07:27:33.769Z,82.72
2023-03-21T07:30:01.229Z,81.35
2023-03-21T07:32:29.986Z,83.01
2023-03-21T07:34:57.551Z,82.74
2023-03-21T07:37:24.960Z,81.77
2023-03-21T07:39:53.781Z,82.62
2023-03-21T07:42:21.312Z,81.38
2023-03-21T07:44:48.748Z,81.15
2023-03-21T07:47:16.159Z,84.66
2023-03-21T07:49:43.559Z,82.30
2023-03-21T07:52:11.026Z,81.16
2023-03-21T07:54:38.463Z,80.83
2023-03-21T07:57:07.335Z,80.13
2023-03-21T07:59:34.758Z,80.12
2023-03-21T08:02:02.214Z,81.39
2023-03-21T08:04:30.138Z,82.72
2023-03-21T08:06:58.064Z,82.25
2023-03-21T08:09:25.462Z,80.93
2023-03-21T08:11:52.857Z,79.92
2023-03-21T08:14:21.592Z,79.14
2023-03-21T08:16:49.019Z,82.42
2023-03-21T08:19:18.671Z,80.29
2023-03-21T08:21:46.082Z,82.00
2023-03-21T08:24:13.461Z,81.93
2023-03-21T08:26:41.060Z,81.48
2023-03-21T08:29:08.896Z,81.83
2023-03-21T08:31:37.655Z,80.78
2023-03-21T08:34:05.176Z,81.45
2023-03-21T08:36:32.730Z,81.95
2023-03-21T08:39:05.633Z,83.79
2023-03-21T08:41:33.566Z,83.79
2023-03-21T08:44:00.972Z,83.16
2023-03-21T08:46:28.683Z,84.13
2023-03-21T08:48:57.551Z,83.08
2023-03-21T08:51:24.954Z,84.00
2023-03-21T08:53:52.558Z,81.92
2023-03-21T08:56:19.999Z,82.00
2023-03-21T08:58:47.408Z,83.97
2023-03-21T09:01:15.884Z,81.96
2023-03-21T09:03:43.832Z,82.48
2023-03-21T09:06:14.282Z,81.14
2023-03-21T09:08:43.331Z,82.06
2023-03-21T09:11:11.641Z,82.29
2023-03-21T09:13:39.138Z,80.80
2023-03-21T09:16:07.367Z,81.22
2023-03-21T09:18:47.094Z,82.09
2023-03-21T09:21:18.163Z,82.32
2023-03-21T09:23:46.142Z,82.46
2023-03-21T09:26:13.968Z,81.97
2023-03-21T09:28:41.662Z,82.31
2023-03-21T09:31:11.295Z,82.05
2023-03-21T09:33:40.210Z,81.05
2023-03-21T09:36:11.751Z,82.32
2023-03-21T09:38:40.978Z,81.96
2023-03-21T09:41:18.573Z,82.20
2023-03-21T09:43:59.949Z,80.25
2023-03-21T09:46:35.761Z,81.28
2023-03-21T09:49:07.937Z,81.65
2023-03-21T09:51:38.215Z,83.49
2023-03-21T09:54:14.270Z,81.83
2023-03-21T09:56:43.930Z,80.28
2023-03-21T09:59:20.884Z,79.49
2023-03-21T10:01:49.917Z,82.90
2023-03-21T10:04:18.853Z,81.57
2023-03-21T10:06:53.714Z,80.67
2023-03-21T10:09:24.445Z,79.23
2023-03-21T10:11:57.258Z,79.57
2023-03-21T10:14:31.169Z,79.78
2023-03-21T10:17:01.760Z,79.79
2023-03-21T10:19:29.792Z,79.36
2023-03-21T10:22:03.083Z,78.88
2023-03-21T10:24:34.684Z,79.75
2023-03-21T10:27:04.769Z,80.79
2023-03-21T10:29:37.166Z,80.05
2023-03-21T10:32:04.975Z,78.46
2023-03-21T10:34:37.456Z,78.61
2023-03-21T10:37:06.830Z,77.19
2023-03-21T10:39:40.154Z,77.91
2023-03-21T10:42:15.774Z,78.65
2023-03-21T10:44:48.829Z,77.30
2023-03-21T10:47:21.580Z,77.16
2023-03-21T10:52:39.347Z,76.53
2023-03-21T10:55:19.512Z,76.90
2023-03-21T10:57:47.964Z,76.55
2023-03-21T11:00:21.726Z,76.83
2023-03-21T11:02:51.385Z,76.38
2023-03-21T11:05:23.073Z,77.42
2023-03-21T11:07:58.761Z,78.44
2023-03-21T11:10:33.659Z,77.08
2023-03-21T11:13:06.872Z,76.38
2023-03-21T11:15:42.057Z,76.13
2023-03-21T11:18:18.626Z,75.93
2023-03-21T11:20:51.734Z,76.23
2023-03-21T11:23:20.892Z,75.50
2023-03-21T11:25:51.636Z,75.52
2023-03-21T11:28:22.082Z,75.20
2023-03-21T11:30:55.525Z,74.83
2023-03-21T11:33:27.039Z,75.96
2023-03-21T11:36:02.901Z,76.29
2023-03-21T11:38:34.006Z,75.05
2023-03-21T11:41:04.257Z,75.21
2023-03-21T11:43:35.957Z,74.61
2023-03-21T11:46:08.918Z,74.61
2023-03-21T11:48:40.804Z,74.08
2023-03-21T11:51:18.179Z,73.64
2023-03-21T11:53:49.987Z,72.97
2023-03-21T11:56:26.497Z,72.89
2023-03-21T11:59:17.300Z,72.13
2023-03-21T12:01:57.179Z,71.27
2023-03-21T12:04:40.525Z,72.61
2023-03-21T12:07:19.887Z,71.51
2023-03-21T12:09:54.490Z,71.34
2023-03-21T12:12:39.364Z,71.79
2023-03-21T12:15:18.278Z,71.79
2023-03-21T12:17:55.607Z,70.99
2023-03-21T12:20:40.284Z,71.20
2023-03-21T12:23:19.314Z,71.11
2023-03-21T12:25:54.138Z,71.26
2023-03-21T12:28:34.771Z,71.36
2023-03-21T12:31:12.131Z,71.59
2023-03-21T12:33:54.244Z,71.32
2023-03-21T12:36:38.636Z,70.85
2023-03-21T12:39:21.705Z,69.65
2023-03-21T12:42:04.322Z,70.11
2023-03-21T12:44:39.005Z,71.16
2023-03-21T12:47:11.350Z,71.30
2023-03-21T12:49:43.915Z,71.29
2023-03-21T12:52:15.575Z,71.36
2023-03-21T12:54:49.507Z,71.92
2023-03-21T12:57:21.224Z,72.13
2023-03-21T12:59:56.152Z,72.49
2023-03-21T13:02:30.543Z,71.17
2023-03-21T13:05:05.982Z,71.70
2023-03-21T13:07:38.352Z,71.09
2023-03-21T13:10:14.725Z,72.65
2023-03-21T13:12:49.191Z,72.51
2023-03-21T13:15:54.774Z,71.63
2023-03-21T13:18:32.289Z,73.09
2023-03-21T13:21:03.702Z,72.62
2023-03-21T13:23:36.703Z,71.82
2023-03-21T13:26:08.774Z,72.31
2023-03-21T13:28:37.932Z,72.52
2023-03-21T13:31:23.325Z,72.54
2023-03-21T13:33:52.607Z,72.21
2023-03-21T13:36:28.819Z,72.41
2023-03-21T13:39:01.891Z,72.40
2023-03-21T13:41:32.999Z,72.05
2023-03-21T13:44:10.815Z,73.11
2023-03-21T13:46:53.322Z,71.95
2023-03-21T13:49:29.348Z,73.19
2023-03-21T13:51:58.469Z,73.18
2023-03-21T13:54:44.460Z,71.87
2023-03-21T13:57:23.370Z,71.64
2023-03-21T13:59:50.870Z,71.57
2023-03-21T14:02:33.635Z,71.35
2023-03-21T14:05:06.055Z,74.50
2023-03-21T14:07:36.662Z,72.68
2023-03-21T14:10:09.469Z,73.30
2023-03-21T14:12:41.167Z,73.02
2023-03-21T14:15:17.178Z,72.49
2023-03-21T14:17:53.736Z,72.53
2023-03-21T14:20:24.178Z,73.61
2023-03-21T14:22:51.841Z,72.52
2023-03-21T14:25:21.522Z,73.40
2023-03-21T14:27:52.582Z,72.96
2023-03-21T14:30:23.990Z,73.31
2023-03-21T14:32:55.826Z,74.01
2023-03-21T14:35:23.706Z,72.31
2023-03-21T14:37:52.642Z,71.84
2023-03-21T14:40:25.286Z,72.49
2023-03-21T14:42:53.704Z,71.76
2023-03-21T14:45:23.155Z,71.87
2023-03-21T14:48:00.013Z,71.55
2023-03-21T14:50:35.818Z,72.52
2023-03-21T14:53:03.608Z,71.82
2023-03-21T14:55:31.948Z,72.97
2023-03-21T14:57:59.596Z,72.44
2023-03-21T15:00:30.333Z,73.42
2023-03-21T15:03:01.286Z,72.63
2023-03-21T15:05:33.388Z,72.02
2023-03-21T15:08:03.593Z,75.58
2023-03-21T15:10:32.575Z,74.03
2023-03-21T15:13:02.545Z,74.21
2023-03-21T15:15:32.706Z,74.61
2023-03-21T15:18:07.231Z,74.48
2023-03-21T15:20:38.523Z,74.35
2023-03-21T15:23:10.678Z,73.46
2023-03-21T15:25:39.490Z,76.51
2023-03-21T15:28:07.444Z,75.15
2023-03-21T15:30:36.059Z,74.14
2023-03-21T15:33:10.576Z,73.87
2023-03-21T15:35:40.953Z,74.70
2023-03-21T15:38:21.771Z,73.02
2023-03-21T15:40:49.290Z,74.81
2023-03-21T15:43:18.837Z,74.62
2023-03-21T15:45:50.873Z,74.03
2023-03-21T15:48:23.175Z,73.57
2023-03-21T15:50:57.425Z,74.45
2023-03-21T15:53:25.933Z,73.86
2023-03-21T15:55:57.509Z,73.43
2023-03-21T15:58:27.747Z,73.90
2023-03-21T16:00:57.570Z,73.01
2023-03-21T16:03:29.176Z,77.32
2023-03-21T16:06:05.044Z,74.60
2023-03-21T16:08:35.815Z,74.42
2023-03-21T16:11:19.150Z,75.23
2023-03-21T16:13:46.901Z,73.51
2023-03-21T16:16:17.851Z,75.63
2023-03-21T16:18:46.867Z,75.04
2023-03-21T16:21:16.317Z,76.30
2023-03-21T16:23:44.001Z,75.94
2023-03-21T16:26:12.982Z,75.25
2023-03-21T16:28:40.554Z,75.02
2023-03-21T16:31:12.729Z,75.02
2023-03-21T16:33:40.318Z,73.81
2023-03-21T16:36:13.866Z,74.11
2023-03-21T16:38:41.349Z,73.61
2023-03-21T16:41:11.257Z,73.88
2023-03-21T16:43:42.784Z,73.85
2023-03-21T16:46:14.984Z,76.13
2023-03-21T16:48:43.017Z,76.03
2023-03-21T16:51:21.646Z,74.12
2023-03-21T16:53:51.409Z,74.82
2023-03-21T16:56:21.520Z,74.07
2023-03-21T16:58:49.312Z,74.77
2023-03-21T17:01:19.672Z,74.70
2023-03-21T17:03:48.291Z,74.74
2023-03-21T17:06:18.669Z,74.48
2023-03-21T17:08:46.860Z,74.69
2023-03-21T17:11:17.501Z,74.22
2023-03-21T17:13:45.436Z,75.68
2023-03-21T17:16:14.028Z,74.94
2023-03-21T17:18:41.554Z,75.07
2023-03-21T17:21:14.511Z,73.54
2023-03-21T17:23:43.975Z,74.68
2023-03-21T17:26:14.030Z,74.96
2023-03-21T17:28:42.059Z,75.61
2023-03-21T17:31:14.019Z,75.74
2023-03-21T17:33:41.581Z,74.76
2023-03-21T17:36:15.037Z,74.41
2023-03-21T17:38:45.804Z,75.40
2023-03-21T17:41:14.616Z,76.30
2023-03-21T17:43:42.119Z,76.27
2023-03-21T17:46:14.034Z,75.74
2023-03-21T17:48:41.611Z,74.93
2023-03-21T17:51:12.758Z,74.69
2023-03-21T17:53:40.302Z,74.66
2023-03-21T17:56:13.543Z,74.24
2023-03-21T17:58:40.989Z,75.21
2023-03-21T18:01:08.577Z,76.73
2023-03-21T18:03:36.031Z,76.73
2023-03-21T18:06:03.914Z,78.27
2023-03-21T18:08:31.372Z,75.58
2023-03-21T18:10:59.016Z,77.60
2023-03-21T18:13:27.796Z,75.61
2023-03-21T18:15:56.369Z,75.09
2023-03-21T18:18:23.958Z,75.43
2023-03-21T18:20:53.664Z,74.64
2023-03-21T18:23:32.235Z,75.72
2023-03-21T18:26:00.332Z,75.61
2023-03-21T18:28:29.082Z,74.91
2023-03-21T18:31:17.983Z,76.66
2023-03-21T18:33:45.244Z,75.87
2023-03-21T18:36:15.330Z,75.03
2023-03-21T18:38:43.124Z,75.18
2023-03-21T18:41:11.441Z,75.60
2023-03-21T18:44:05.274Z,75.76
2023-03-21T18:46:27.852Z,75.95
2023-03-21T18:48:55.628Z,75.94
2023-03-21T18:51:23.080Z,75.59
2023-03-21T18:53:50.563Z,75.39
2023-03-21T18:57:05.888Z,75.38
2023-03-21T18:59:07.410Z,75.32
2023-03-21T19:01:35.811Z,75.58
2023-03-21T19:04:20.734Z,75.89
2023-03-21T19:06:51.066Z,75.74
2023-03-21T19:09:18.726Z,76.30
2023-03-21T19:11:46.673Z,76.58
2023-03-21T19:14:17.481Z,76.79
2023-03-21T19:17:26.666Z,76.65
2023-03-21T19:19:33.756Z,77.51
2023-03-21T19:22:01.644Z,77.31
2023-03-21T19:24:29.362Z,78.64
2023-03-21T19:26:56.929Z,78.19
2023-03-21T19:29:26.151Z,78.42
2023-03-21T19:31:53.844Z,78.86
2023-03-21T19:34:21.680Z,79.06
2023-03-21T19:36:51.912Z,78.83
2023-03-21T19:39:22.230Z,79.77
2023-03-21T19:41:50.176Z,80.01
2023-03-21T19:44:19.081Z,81.13
2023-03-21T19:46:48.875Z,81.59
2023-03-21T19:49:20.138Z,83.27
2023-03-21T19:51:48.166Z,84.12
2023-03-21T19:54:17.857Z,84.12
2023-03-21T19:56:47.649Z,84.19
2023-03-21T19:59:15.998Z,82.94
2023-03-21T20:01:43.586Z,83.89
2023-03-21T20:04:12.747Z,84.08
2023-03-21T20:06:40.485Z,86.01
2023-03-21T20:11:57.878Z,87.46
2023-03-21T20:14:25.826Z,86.42
2023-03-21T20:16:55.243Z,85.13
2023-03-21T20:19:25.460Z,86.26
2023-03-21T20:21:58.772Z,85.74
2023-03-21T20:24:28.308Z,85.54
2023-03-21T20:26:57.373Z,85.76
2023-03-21T20:32:16.139Z,87.74
2023-03-21T20:34:46.237Z,86.90
2023-03-21T20:37:15.671Z,89.96
2023-03-21T20:39:43.611Z,90.24
2023-03-21T20:42:11.652Z,92.20
2023-03-21T20:44:58.468Z,90.54
2023-03-21T20:47:27.879Z,96.58
2023-03-21T20:50:01.847Z,92.16
2023-03-21T20:55:28.280Z,90.42
2023-03-21T20:57:55.840Z,90.79
2023-03-21T21:00:26.559Z,89.75
2023-03-21T21:02:54.382Z,92.25
2023-03-21T21:05:28.310Z,91.11
2023-03-21T21:07:57.117Z,89.66
2023-03-21T21:10:25.932Z,94.02
2023-03-21T21:12:53.768Z,91.20
2023-03-21T21:15:22.043Z,94.50
2023-03-21T21:18:08.531Z,90.81
2023-03-21T21:20:40.658Z,88.27
2023-03-21T21:23:13.740Z,90.58
2023-03-21T21:25:44.593Z,89.81
2023-03-21T21:28:14.482Z,89.58
2023-03-21T21:30:42.821Z,91.56
2023-03-21T21:33:10.537Z,91.03
2023-03-21T21:35:39.507Z,93.08
2023-03-21T21:38:07.124Z,85.28
2023-03-21T21:40:34.561Z,87.72
2023-03-21T21:43:03.651Z,87.64
2023-03-21T21:45:31.689Z,87.87
2023-03-21T21:47:59.134Z,91.03
2023-03-21T21:50:26.573Z,89.42
2023-03-21T21:52:55.352Z,90.25
2023-03-21T21:55:23.357Z,91.11
2023-03-21T21:57:51.243Z,89.72
2023-03-21T22:00:20.563Z,89.41
2023-03-21T22:02:48.265Z,90.17
2023-03-21T22:05:16.260Z,89.85
2023-03-21T22:07:44.192Z,90.61
2023-03-21T22:10:13.379Z,94.19
2023-03-21T22:12:41.169Z,93.03
2023-03-21T22:15:10.707Z,89.68
2023-03-21T22:17:39.070Z,91.23
2023-03-21T22:20:08.777Z,92.57
2023-03-21T22:22:37.312Z,91.23
2023-03-21T22:25:06.744Z,90.38
2023-03-21T22:27:35.711Z,90.65
2023-03-21T22:30:04.872Z,90.02
2023-03-21T22:32:32.387Z,91.00
2023-03-21T22:35:02.256Z,91.61
2023-03-21T22:37:29.882Z,90.75
2023-03-21T22:39:57.284Z,90.98
2023-03-21T22:42:25.324Z,91.52
2023-03-21T22:44:54.084Z,90.40
2023-03-21T22:47:21.594Z,91.40
2023-03-21T22:49:49.061Z,91.79
2023-03-21T22:52:16.519Z,93.20
2023-03-21T22:54:44.096Z,92.41
2023-03-21T22:57:13.587Z,91.89
2023-03-21T22:59:41.171Z,94.99
2023-03-21T23:02:10.382Z,95.46
2023-03-21T23:04:38.202Z,92.20
2023-03-21T23:07:05.859Z,93.12
2023-03-21T23:09:33.560Z,98.05
2023-03-21T23:12:01.164Z,94.34
2023-03-21T23:14:28.849Z,95.25
2023-03-21T23:17:00.144Z,95.84
2023-03-21T23:19:29.614Z,93.33
2023-03-21T23:21:57.780Z,93.00
2023-03-21T23:24:25.731Z,93.56
2023-03-21T23:26:53.418Z,91.98
2023-03-21T23:29:20.955Z,91.67
2023-03-21T23:31:48.430Z,90.56
2023-03-21T23:34:16.286Z,90.49
2023-03-21T23:36:45.209Z,90.73
2023-03-21T23:39:12.635Z,90.27
2023-03-21T23:41:42.649Z,90.20
2023-03-21T23:44:10.113Z,90.41
2023-03-21T23:46:37.683Z,90.96
2023-03-21T23:49:05.255Z,91.31
2023-03-21T23:51:32.727Z,91.72
2023-03-21T23:54:01.613Z,91.89
2023-03-21T23:56:29.342Z,91.99
2023-03-21T23:58:58.185Z,94.67
